createdAt,value
2022-11-14T00:00:57.777Z,7.88
2022-11-14T00:03:44.666Z,7.45
2022-11-14T00:06:32.025Z,7.65
2022-11-14T00:09:19.195Z,7.78
2022-11-14T00:12:06.974Z,7.40
2022-11-14T00:14:55.926Z,8.43
2022-11-14T00:17:42.986Z,9.15
2022-11-14T00:20:30.011Z,7.35
2022-11-14T00:23:17.369Z,8.75
2022-11-14T00:26:04.224Z,10.10
2022-11-14T00:28:51.269Z,9.35
2022-11-14T00:51:40.171Z,13.80
2022-11-14T00:54:27.491Z,9.18
2022-11-14T00:57:14.329Z,8.43
2022-11-14T01:00:01.777Z,10.02
2022-11-14T01:02:48.821Z,11.68
2022-11-14T01:05:41.259Z,8.93
2022-11-14T01:08:30.153Z,9.10
2022-11-14T01:11:19.461Z,8.95
2022-11-14T01:14:07.593Z,9.30
2022-11-14T01:16:54.505Z,8.27
2022-11-14T01:19:42.263Z,8.45
2022-11-14T01:22:31.289Z,9.02
2022-11-14T01:25:19.963Z,9.70
2022-11-14T01:47:37.282Z,6.93
2022-11-14T01:50:24.137Z,8.60
2022-11-14T01:53:11.330Z,11.77
2022-11-14T01:56:04.668Z,9.07
2022-11-14T01:58:55.360Z,7.55
2022-11-14T02:01:46.720Z,10.18
2022-11-14T02:04:43.657Z,8.02
2022-11-14T02:07:33.401Z,8.48
2022-11-14T02:10:22.316Z,8.85
2022-11-14T02:13:09.655Z,10.20
2022-11-14T02:35:42.206Z,6.65
2022-11-14T02:38:29.477Z,7.32
2022-11-14T02:41:16.958Z,7.38
2022-11-14T02:44:04.048Z,7.53
2022-11-14T02:46:51.599Z,6.97
2022-11-14T02:49:38.797Z,7.93
2022-11-14T02:52:27.241Z,6.22
2022-11-14T02:55:14.384Z,6.63
2022-11-14T02:58:01.750Z,7.40
2022-11-14T03:01:18.519Z,9.85
2022-11-14T03:03:55.978Z,6.65
2022-11-14T03:06:43.263Z,7.10
2022-11-14T03:09:31.907Z,8.25
2022-11-14T03:12:19.528Z,6.88
2022-11-14T03:15:07.572Z,6.00
2022-11-14T03:32:40.603Z,6.55
2022-11-14T03:35:27.972Z,7.80
2022-11-14T03:38:15.060Z,6.65
2022-11-14T03:41:02.994Z,7.00
2022-11-14T03:43:50.085Z,6.68
2022-11-14T03:46:37.336Z,7.10
2022-11-14T03:49:25.933Z,7.30
2022-11-14T03:52:13.296Z,7.18
2022-11-14T03:55:00.416Z,7.43
2022-11-14T03:57:47.609Z,7.53
2022-11-14T04:00:34.884Z,7.35
2022-11-14T04:03:22.067Z,7.63
2022-11-14T04:06:10.604Z,5.88
2022-11-14T04:08:57.756Z,7.10
2022-11-14T04:11:44.873Z,6.15
2022-11-14T04:14:32.020Z,7.70
2022-11-14T04:17:19.302Z,7.03
2022-11-14T04:20:07.365Z,7.03
2022-11-14T04:22:55.870Z,7.20
2022-11-14T04:25:44.906Z,7.68
2022-11-14T04:28:32.394Z,8.15
2022-11-14T04:31:19.773Z,7.75
2022-11-14T04:34:06.930Z,6.95
2022-11-14T04:36:54.165Z,6.90
2022-11-14T04:39:42.645Z,6.78
2022-11-14T04:42:30.000Z,8.40
2022-11-14T04:45:17.298Z,8.02
2022-11-14T04:48:04.276Z,11.25
2022-11-14T04:50:51.321Z,9.32
2022-11-14T04:53:38.683Z,10.15
2022-11-14T04:56:27.116Z,10.40
2022-11-14T04:59:18.302Z,11.82
2022-11-14T05:02:07.638Z,11.10
2022-11-14T05:04:54.741Z,15.15
2022-11-14T05:07:41.939Z,14.05
2022-11-14T05:10:29.248Z,11.32
2022-11-14T05:13:17.710Z,13.38
2022-11-14T05:16:05.368Z,11.77
2022-11-14T05:18:54.775Z,8.77
2022-11-14T05:21:41.873Z,8.65
2022-11-14T05:24:29.248Z,11.68
2022-11-14T05:27:16.672Z,9.82
2022-11-14T05:30:06.131Z,10.75
2022-11-14T05:32:53.532Z,14.60
2022-11-14T05:35:40.606Z,11.05
2022-11-14T05:38:28.062Z,10.10
2022-11-14T05:41:17.148Z,8.55
2022-11-14T05:44:05.561Z,12.45
2022-11-14T05:46:54.099Z,11.00
2022-11-14T05:49:41.303Z,13.25
2022-11-14T05:52:28.598Z,9.20
2022-11-14T05:55:18.310Z,11.50
2022-11-14T05:58:07.837Z,13.25
2022-11-14T06:01:01.916Z,12.98
2022-11-14T06:03:50.430Z,18.42
2022-11-14T06:06:37.364Z,18.17
2022-11-14T06:09:24.656Z,19.20
2022-11-14T06:12:11.830Z,17.33
2022-11-14T06:14:58.921Z,16.88
2022-11-14T06:17:46.924Z,19.27
2022-11-14T06:20:35.284Z,19.27
2022-11-14T06:23:24.949Z,16.27
2022-11-14T06:26:20.792Z,19.60
2022-11-14T06:29:07.631Z,20.52
2022-11-14T06:31:55.189Z,21.25
2022-11-14T06:34:42.500Z,20.77
2022-11-14T06:37:33.651Z,20.48
2022-11-14T06:40:21.804Z,19.52
2022-11-14T06:43:09.112Z,20.10
2022-11-14T06:45:56.534Z,21.48
2022-11-14T06:48:44.910Z,19.75
2022-11-14T06:51:34.428Z,21.35
2022-11-14T06:54:23.285Z,19.20
2022-11-14T06:57:11.125Z,21.15
2022-11-14T06:59:58.704Z,20.27
2022-11-14T07:02:47.070Z,19.60
2022-11-14T07:05:34.090Z,28.10
2022-11-14T07:08:21.469Z,25.05
2022-11-14T07:11:11.955Z,26.23
2022-11-14T07:14:01.313Z,30.70
2022-11-14T07:16:48.425Z,29.17
2022-11-14T07:19:35.662Z,26.98
2022-11-14T07:22:22.965Z,30.23
2022-11-14T07:25:10.860Z,30.33
2022-11-14T07:27:59.887Z,31.45
2022-11-14T07:30:46.941Z,33.22
2022-11-14T07:33:34.437Z,30.02
2022-11-14T07:36:21.472Z,32.70
2022-11-14T07:39:08.923Z,33.67
2022-11-14T07:41:56.136Z,31.92
2022-11-14T07:44:44.810Z,35.35
2022-11-14T07:47:32.341Z,31.50
2022-11-14T07:50:21.191Z,33.70
2022-11-14T07:53:08.844Z,31.48
2022-11-14T07:55:55.794Z,32.13
2022-11-14T07:58:43.271Z,31.15
2022-11-14T08:01:31.625Z,29.80
2022-11-14T08:04:18.639Z,26.80
2022-11-14T08:07:06.088Z,27.88
2022-11-14T08:09:53.580Z,34.35
2022-11-14T08:12:41.168Z,25.27
2022-11-14T08:15:29.315Z,28.98
2022-11-14T08:18:18.040Z,25.55
2022-11-14T08:21:05.810Z,25.25
2022-11-14T08:23:52.883Z,26.48
2022-11-14T08:26:40.016Z,26.10
2022-11-14T08:29:27.277Z,25.90
2022-11-14T08:32:15.603Z,28.67
2022-11-14T08:35:04.346Z,25.75
2022-11-14T08:37:51.701Z,26.52
2022-11-14T08:40:39.160Z,27.02
2022-11-14T08:43:26.438Z,24.38
2022-11-14T08:46:13.397Z,25.88
2022-11-14T08:49:00.946Z,24.33
2022-11-14T08:51:49.500Z,23.90
2022-11-14T08:54:36.378Z,22.33
2022-11-14T08:57:23.593Z,27.92
2022-11-14T09:00:12.169Z,24.05
2022-11-14T09:02:59.453Z,23.67
2022-11-14T09:05:52.964Z,26.08
2022-11-14T09:08:41.679Z,28.50
2022-11-14T09:11:29.007Z,29.55
2022-11-14T09:14:16.365Z,24.73
2022-11-14T09:17:06.123Z,26.67
2022-11-14T09:19:54.145Z,26.67
2022-11-14T09:22:41.836Z,24.67
2022-11-14T09:25:31.374Z,24.23
2022-11-14T09:28:18.869Z,22.67
2022-11-14T09:31:07.179Z,24.85
2022-11-14T09:33:54.139Z,24.77
2022-11-14T09:36:41.402Z,23.63
2022-11-14T09:39:28.944Z,21.55
2022-11-14T09:42:35.622Z,24.42
2022-11-14T09:45:23.069Z,22.25
2022-11-14T09:48:15.262Z,25.95
2022-11-14T09:51:09.050Z,25.70
2022-11-14T09:54:01.722Z,20.80
2022-11-14T09:56:49.324Z,24.52
2022-11-14T09:59:37.743Z,23.27
2022-11-14T10:02:47.540Z,22.02
2022-11-14T10:05:49.484Z,25.85
2022-11-14T10:08:51.251Z,26.17
2022-11-14T10:11:44.772Z,21.88
2022-11-14T10:14:59.994Z,25.13
2022-11-14T10:18:01.410Z,24.60
2022-11-14T10:20:54.158Z,27.42
2022-11-14T10:23:48.581Z,31.42
2022-11-14T10:26:39.408Z,25.67
2022-11-14T10:29:45.467Z,29.50
2022-11-14T10:33:01.664Z,26.77
2022-11-14T10:35:54.344Z,27.58
2022-11-14T10:38:49.371Z,25.10
2022-11-14T10:41:55.987Z,25.50
2022-11-14T10:44:50.769Z,26.20
2022-11-14T10:47:44.638Z,27.23
2022-11-14T10:50:41.798Z,28.13
2022-11-14T10:53:39.474Z,28.67
2022-11-14T10:56:26.568Z,26.40
2022-11-14T10:59:13.872Z,26.27
2022-11-14T11:02:01.060Z,27.83
2022-11-14T11:04:49.607Z,25.10
2022-11-14T11:08:28.379Z,27.67
2022-11-14T11:11:32.281Z,28.67
2022-11-14T11:14:20.754Z,25.05
2022-11-14T11:17:22.904Z,30.17
2022-11-14T11:20:31.136Z,30.48
2022-11-14T11:23:21.100Z,30.60
2022-11-14T11:26:16.974Z,25.52
2022-11-14T11:29:07.476Z,28.48
2022-11-14T11:31:56.331Z,34.83
2022-11-14T11:34:43.792Z,31.00
2022-11-14T11:37:36.725Z,28.63
2022-11-14T11:40:26.648Z,33.63
2022-11-14T11:46:34.326Z,27.13
2022-11-14T11:49:29.291Z,30.75
2022-11-14T11:52:22.296Z,29.90
2022-11-14T11:55:19.397Z,27.70
2022-11-14T11:58:13.051Z,29.65
2022-11-14T12:01:00.441Z,29.52
2022-11-14T12:03:53.012Z,30.25
2022-11-14T12:06:47.487Z,31.63
2022-11-14T12:10:08.701Z,32.10
2022-11-14T12:13:32.425Z,26.65
2022-11-14T12:16:40.403Z,28.67
2022-11-14T12:19:47.084Z,30.63
2022-11-14T12:22:56.990Z,26.00
2022-11-14T12:25:58.866Z,31.65
2022-11-14T12:28:59.294Z,25.98
2022-11-14T12:31:50.658Z,25.58
2022-11-14T12:34:42.091Z,30.08
2022-11-14T12:37:34.097Z,26.92
2022-11-14T12:40:30.019Z,28.40
2022-11-14T12:43:37.259Z,26.60
2022-11-14T12:46:24.938Z,26.98
2022-11-14T12:49:58.032Z,22.60
2022-11-14T12:52:48.722Z,29.25
2022-11-14T12:56:08.941Z,23.55
2022-11-14T12:59:27.653Z,21.88
2022-11-14T13:03:01.109Z,24.92
2022-11-14T13:05:58.295Z,24.70
2022-11-14T13:09:03.239Z,25.52
2022-11-14T13:12:08.589Z,23.83
2022-11-14T13:15:29.876Z,24.15
2022-11-14T13:18:40.521Z,23.92
2022-11-14T13:21:49.068Z,22.15
2022-11-14T13:25:16.080Z,24.85
2022-11-14T13:28:36.511Z,25.30
2022-11-14T13:31:25.282Z,22.55
2022-11-14T13:34:37.440Z,23.35
2022-11-14T13:37:56.487Z,28.20
2022-11-14T13:40:52.059Z,23.90
2022-11-14T13:43:56.162Z,22.50
2022-11-14T13:47:03.592Z,21.60
2022-11-14T13:50:07.172Z,22.20
2022-11-14T13:52:56.406Z,22.75
2022-11-14T13:55:57.658Z,24.15
2022-11-14T13:59:03.110Z,20.67
2022-11-14T14:02:06.130Z,25.55
2022-11-14T14:05:03.944Z,21.65
2022-11-14T14:08:15.012Z,24.83
2022-11-14T14:11:18.802Z,21.48
2022-11-14T14:14:20.002Z,20.15
2022-11-14T14:17:14.125Z,22.85
2022-11-14T14:20:13.755Z,25.00
2022-11-14T14:23:09.399Z,19.17
2022-11-14T14:26:07.321Z,18.73
2022-11-14T14:29:06.062Z,20.50
2022-11-14T14:31:53.320Z,23.45
2022-11-14T14:34:41.851Z,19.83
2022-11-14T14:37:31.778Z,21.42
2022-11-14T14:40:26.594Z,22.20
2022-11-14T14:43:26.541Z,20.63
2022-11-14T14:46:13.946Z,19.00
2022-11-14T14:49:04.334Z,20.88
2022-11-14T14:51:55.826Z,19.17
2022-11-14T14:54:55.355Z,21.58
2022-11-14T14:57:42.586Z,19.88
2022-11-14T15:00:30.827Z,18.92
2022-11-14T15:03:19.596Z,20.55
2022-11-14T15:06:09.495Z,19.52
2022-11-14T15:08:58.216Z,17.48
2022-11-14T15:11:48.623Z,17.33
2022-11-14T15:14:39.867Z,18.52
2022-11-14T15:17:34.475Z,18.92
2022-11-14T15:20:24.416Z,20.17
2022-11-14T15:23:21.646Z,16.67
2022-11-14T15:26:17.162Z,21.75
2022-11-14T15:29:08.623Z,21.25
2022-11-14T15:31:59.212Z,21.83
2022-11-14T15:35:08.894Z,18.35
2022-11-14T15:38:37.060Z,18.30
2022-11-14T15:41:22.191Z,20.52
2022-11-14T15:44:30.715Z,19.67
2022-11-14T15:47:23.632Z,19.75
2022-11-14T15:50:30.022Z,18.80
2022-11-14T15:53:23.608Z,18.33
2022-11-14T15:56:13.958Z,20.10
2022-11-14T15:59:01.476Z,19.58
2022-11-14T16:01:52.277Z,19.05
2022-11-14T16:04:46.049Z,17.98
2022-11-14T16:07:36.143Z,21.10
2022-11-14T16:10:25.311Z,19.40
2022-11-14T16:13:12.512Z,17.40
2022-11-14T16:15:59.643Z,18.40
2022-11-14T16:18:46.981Z,19.63
2022-11-14T16:21:34.585Z,20.38
2022-11-14T16:24:26.667Z,22.52
2022-11-14T16:27:15.768Z,18.33
2022-11-14T16:30:03.120Z,19.98
2022-11-14T16:32:51.596Z,21.02
2022-11-14T16:35:38.679Z,19.33
2022-11-14T16:38:25.892Z,19.77
2022-11-14T16:41:15.467Z,19.42
2022-11-14T16:44:02.622Z,17.73
2022-11-14T16:46:49.888Z,18.70
2022-11-14T16:49:37.136Z,17.23
2022-11-14T16:52:24.626Z,17.80
2022-11-14T16:55:13.161Z,19.35
2022-11-14T16:58:01.507Z,18.02
2022-11-14T17:00:48.964Z,18.17
2022-11-14T17:03:36.147Z,16.38
2022-11-14T17:06:23.446Z,15.55
2022-11-14T17:09:14.477Z,21.55
2022-11-14T17:12:01.733Z,18.05
2022-11-14T17:14:50.311Z,18.60
2022-11-14T17:17:37.139Z,18.08
2022-11-14T17:20:24.395Z,14.65
2022-11-14T17:23:11.528Z,15.70
2022-11-14T17:26:03.128Z,15.43
2022-11-14T17:28:50.153Z,16.08
2022-11-14T17:31:42.049Z,15.55
2022-11-14T17:34:31.967Z,17.58
2022-11-14T17:37:19.042Z,13.65
2022-11-14T17:40:10.191Z,14.57
2022-11-14T17:43:01.166Z,17.42
2022-11-14T17:45:55.977Z,15.05
2022-11-14T17:48:45.032Z,14.73
2022-11-14T17:51:32.100Z,16.05
2022-11-14T17:54:19.040Z,13.77
2022-11-14T17:57:06.546Z,13.38
2022-11-14T17:59:53.800Z,13.63
2022-11-14T18:02:41.028Z,12.60
2022-11-14T18:05:29.801Z,12.60
2022-11-14T18:08:16.784Z,12.88
2022-11-14T18:11:04.649Z,12.10
2022-11-14T18:13:55.949Z,12.13
2022-11-14T18:17:11.273Z,11.60
2022-11-14T18:19:50.378Z,11.43
2022-11-14T18:22:38.853Z,10.93
2022-11-14T18:25:26.011Z,11.40
2022-11-14T18:28:13.286Z,11.32
2022-11-14T18:31:03.261Z,11.70
2022-11-14T18:33:50.732Z,9.20
2022-11-14T18:36:37.851Z,9.95
2022-11-14T18:39:28.966Z,10.48
2022-11-14T18:42:15.816Z,11.48
2022-11-14T18:45:03.210Z,12.02
2022-11-14T18:47:50.075Z,10.18
2022-11-14T18:50:37.297Z,11.82
2022-11-14T18:53:24.507Z,10.70
2022-11-14T18:56:15.032Z,11.50
2022-11-14T18:59:02.149Z,10.38
2022-11-14T19:01:49.244Z,12.55
2022-11-14T19:04:36.639Z,13.05
2022-11-14T19:07:25.335Z,12.23
2022-11-14T19:10:12.204Z,12.07
2022-11-14T19:13:00.916Z,12.90
2022-11-14T19:15:48.209Z,10.98
2022-11-14T19:18:35.327Z,14.10
2022-11-14T19:21:22.472Z,11.02
2022-11-14T19:24:10.417Z,11.95
2022-11-14T19:26:57.555Z,14.35
2022-11-14T19:29:45.733Z,11.32
2022-11-14T19:32:34.311Z,12.27
2022-11-14T19:35:21.253Z,12.20
2022-11-14T19:38:08.771Z,11.07
2022-11-14T19:40:58.654Z,11.32
2022-11-14T19:43:49.566Z,11.93
2022-11-14T19:46:39.181Z,13.32
2022-11-14T19:49:27.689Z,13.38
2022-11-14T19:52:17.911Z,9.88
2022-11-14T19:55:05.781Z,11.43
2022-11-14T19:57:54.729Z,10.98
2022-11-14T20:00:42.085Z,11.45
2022-11-14T20:03:31.002Z,9.93
2022-11-14T20:06:21.752Z,12.38
2022-11-14T20:09:10.549Z,12.98
2022-11-14T20:11:57.576Z,12.45
2022-11-14T20:14:44.864Z,11.48
2022-11-14T20:17:33.631Z,16.40
2022-11-14T20:20:22.297Z,12.70
2022-11-14T20:23:09.757Z,10.60
2022-11-14T20:25:57.274Z,11.80
2022-11-14T20:28:47.092Z,12.10
2022-11-14T20:31:34.395Z,13.02
2022-11-14T20:34:21.682Z,13.60
2022-11-14T20:37:11.807Z,12.60
2022-11-14T20:39:59.057Z,13.27
2022-11-14T20:42:48.306Z,11.65
2022-11-14T20:45:35.542Z,10.50
2022-11-14T20:48:22.700Z,13.52
2022-11-14T20:51:12.021Z,10.73
2022-11-14T20:54:00.532Z,11.40
2022-11-14T20:56:47.607Z,10.93
2022-11-14T20:59:35.015Z,9.77
2022-11-14T21:02:22.403Z,9.82
2022-11-14T21:05:11.432Z,10.80
2022-11-14T21:07:58.528Z,9.68
2022-11-14T21:10:48.833Z,9.98
2022-11-14T21:13:54.906Z,10.93
2022-11-14T21:16:42.297Z,12.52
2022-11-14T21:19:30.102Z,9.63
2022-11-14T21:22:16.885Z,15.80
2022-11-14T21:25:04.260Z,9.23
2022-11-14T21:27:52.973Z,9.30
2022-11-14T21:30:39.883Z,10.27
2022-11-14T21:33:27.546Z,9.68
2022-11-14T21:36:43.204Z,10.57
2022-11-14T21:39:23.569Z,10.10
2022-11-14T21:42:14.279Z,8.85
2022-11-14T21:45:07.229Z,8.80
2022-11-14T21:47:54.165Z,10.75
2022-11-14T21:50:41.387Z,13.45
2022-11-14T21:53:29.177Z,10.90
2022-11-14T21:56:18.152Z,8.48
2022-11-14T21:59:16.801Z,8.05
2022-11-14T22:02:23.422Z,6.95
2022-11-14T22:05:10.603Z,8.40
2022-11-14T22:07:57.943Z,8.93
2022-11-14T22:10:45.225Z,7.13
2022-11-14T22:13:32.939Z,11.77
2022-11-14T22:16:20.828Z,7.25
2022-11-14T22:19:09.222Z,8.15
2022-11-14T22:21:56.347Z,11.40
2022-11-14T22:24:43.548Z,6.93
2022-11-14T22:27:30.698Z,10.35
2022-11-14T22:30:18.018Z,8.65
2022-11-14T22:33:05.312Z,9.88
2022-11-14T22:35:53.759Z,6.45
2022-11-14T22:38:42.031Z,7.88
2022-11-14T22:41:33.013Z,7.95
2022-11-14T22:44:20.348Z,9.20
2022-11-14T22:47:07.452Z,6.35
2022-11-14T22:49:54.700Z,6.93
2022-11-14T22:52:43.447Z,8.55
2022-11-14T22:55:30.347Z,8.00
2022-11-14T22:58:17.698Z,9.15
2022-11-14T23:01:12.434Z,8.10
2022-11-14T23:04:01.223Z,10.10
2022-11-14T23:06:48.479Z,9.07
2022-11-14T23:09:36.967Z,9.15
2022-11-14T23:12:24.186Z,9.95
2022-11-14T23:15:12.055Z,9.90
2022-11-14T23:18:00.301Z,7.53
2022-11-14T23:20:47.188Z,9.45
2022-11-14T23:23:34.408Z,9.27
2022-11-14T23:26:23.594Z,8.88
2022-11-14T23:29:14.144Z,7.85
2022-11-14T23:32:01.245Z,6.85
2022-11-14T23:34:48.464Z,8.98
2022-11-14T23:37:35.709Z,8.85
2022-11-14T23:40:23.080Z,8.00
2022-11-14T23:43:11.494Z,11.43
2022-11-14T23:45:58.854Z,10.55
2022-11-14T23:48:46.017Z,8.90
2022-11-14T23:51:33.799Z,11.88
2022-11-14T23:54:20.983Z,7.68
2022-11-14T23:57:08.144Z,8.93
2022-11-14T23:59:56.784Z,9.98
